Newark, NJ

04:25 EDT dnia 04-lipiec-2015 (GMT -0400)
Rutgers Biomedical and Health Sciences Campus | | Change Station
CLOSE
Current Station
Stacja PWS
Location: Newark, NJ
n.p.m.: 144 ft
Najbliższa stacja pogodowa

Wysokość 144 ft 40.74 °N, 74.19 °W | Updated 7 seconds ago

Light Rain
lekki deszcz
70.0 ° F
Odczuwalna 70.0 ° F
Płn.
1.7
Wiatr zmienny Wiatr od wschodni
Gusts 2.0 mph

Dziś
Wysoka -- | Niska -- ° F
--% Prawdop. opadów
Wczoraj
Wysoka -- | Niska -- ° F
Precip. -- cali
5:30 AM 8:31 PM
Zmniejszający się Księżyc, 93% visible
Ciśnienie 29.96 cali
Widzialność 10.0 mil
chmury Niewiele 6000 ft
obłoki zanikające 11000 ft
pochmurno 15000 ft
Punkt rosy 66 ° F
Wilgotność 86%
Opady deszczu 0.00 cali
grubość pokrywy śnieżnej Niedostępne.
UV 0.0 z 12
Pyłki 4.10 z 12
Jakość powietrza Niedostępne.
Flu Activity Niedostępne.
METAR KEWR 040751Z 00000KT 10SM -RA FEW060 SCT110 OVC150 21/17 A2996 RMK AO2 RAE16B48 SLP145 P0000 T02110167

More Conditions Fewer Conditions

Ciśnienie 29.96 cali
Widzialność 10.0 mil
chmury Niewiele 6000 ft
obłoki zanikające 11000 ft
pochmurno 15000 ft
Punkt rosy 66 ° F
Wilgotność 86%
Opady deszczu 0.00 cali
grubość pokrywy śnieżnej Niedostępne.
UV 0.0 z 12
Pyłki 4.10 z 12
Jakość powietrza Niedostępne.
Flu Activity Niedostępne.
METAR KEWR 040751Z 00000KT 10SM -RA FEW060 SCT110 OVC150 21/17 A2996 RMK AO2 RAE16B48 SLP145 P0000 T02110167

More Conditions Fewer Conditions

10-Day Weather Forecast

×

Almanac

Astronomia

Jul. 04, 2015 Wschód Zachów
Aktualny czas
Zmierzch cywilny
Zmierzch żeglarski
świt/zmierzch astronomiczny
Księżyc
całkowite oświetlenie
Długość dnia
Tomorrow will be .
, % of the Moon is Illuminated

Dzisiejsze ekstrema

State Highs State Lows

Community

WunderPhotos

Upload Photos

1,834,931 zdjęcia zostały przesłane!

WunderBlogs® & News

Nearby

Jakość powietrza

  Jakość powietrza czynnik AQ Zanieczyszczenie
Not available.

Głębokość pokrywy śnieżnej

Station Depth n.p.m.

Aktywność sejsmiczna

Miejscowość Distance Mag. Time & Date
Minimum magnitude displayed is 2.5.

Temperatury wody na wybrzeżu

Miejsce Temperatura

Stations

Najbliższa stacja pogodowa

Lokalizacja stacji Temp. czynnik chłodzący wiatru Punkt rosy Wilgotność Wiatr Precip. Wysokość Uaktualniono Typ